createdAt,value
2018-10-12T09:01:20.762Z,38
2018-10-12T09:04:20.786Z,38
2018-10-12T09:07:20.810Z,38
2018-10-12T09:10:20.822Z,38
2018-10-12T09:13:20.861Z,39
2018-10-12T09:16:20.918Z,40
2018-10-12T09:19:20.896Z,40
2018-10-12T09:22:20.936Z,40
2018-10-12T09:25:20.946Z,40
2018-10-12T09:28:20.975Z,40
2018-10-12T09:31:21.147Z,40
2018-10-12T09:34:21.133Z,41
2018-10-12T09:37:21.170Z,41
2018-10-12T09:40:21.198Z,42
2018-10-12T09:43:21.150Z,42
2018-10-12T09:46:21.147Z,43
2018-10-12T09:49:21.148Z,43
2018-10-12T09:52:21.187Z,44
2018-10-12T09:55:21.225Z,44
2018-10-12T09:58:21.371Z,44
2018-10-12T10:01:21.288Z,44
2018-10-12T10:04:21.749Z,44
2018-10-12T10:07:21.367Z,45
2018-10-12T10:10:21.360Z,45
2018-10-12T10:13:21.373Z,45
2018-10-12T10:16:21.450Z,45
2018-10-12T10:19:21.501Z,45
2018-10-12T10:22:21.525Z,45
2018-10-12T10:25:21.532Z,46
2018-10-12T10:28:21.671Z,46
2018-10-12T10:31:21.716Z,46
2018-10-12T10:34:21.592Z,47
2018-10-12T10:37:21.663Z,47
2018-10-12T10:40:21.682Z,47
2018-10-12T10:43:21.703Z,47
2018-10-12T10:46:21.825Z,47
2018-10-12T10:49:21.776Z,47
2018-10-12T10:52:21.781Z,47
2018-10-12T10:55:21.833Z,47
2018-10-12T10:58:21.964Z,47
2018-10-12T11:01:21.914Z,47
2018-10-12T11:04:22.084Z,47
2018-10-12T11:07:21.966Z,48
2018-10-12T11:10:22.000Z,47
2018-10-12T11:13:22.141Z,47
2018-10-12T11:16:22.066Z,48
2018-10-12T11:19:22.141Z,48
2018-10-12T11:22:22.235Z,48
2018-10-12T11:25:22.169Z,48
2018-10-12T11:28:22.200Z,47
2018-10-12T11:31:22.248Z,47
2018-10-12T11:34:22.270Z,47
2018-10-12T11:37:22.303Z,48
2018-10-12T11:40:22.341Z,48
2018-10-12T11:43:22.354Z,49
2018-10-12T11:46:22.520Z,49
2018-10-12T11:49:22.702Z,49
2018-10-12T11:52:22.475Z,49
2018-10-12T11:55:22.519Z,49
2018-10-12T12:01:22.605Z,49
2018-10-12T12:04:22.635Z,49
2018-10-12T12:07:23.174Z,49
2018-10-12T12:10:22.714Z,49
2018-10-12T12:13:22.777Z,48
2018-10-12T12:16:22.797Z,48
2018-10-12T12:19:22.882Z,48
2018-10-12T12:22:22.847Z,48
2018-10-12T12:25:22.887Z,48
2018-10-12T12:28:22.931Z,49
2018-10-12T12:31:23.071Z,49
2018-10-12T12:34:23.007Z,49
2018-10-12T12:37:23.042Z,49
2018-10-12T12:40:23.062Z,49
2018-10-12T12:43:23.207Z,48
2018-10-12T12:46:23.152Z,48
2018-10-12T12:49:23.530Z,49
2018-10-12T12:52:23.204Z,49
2018-10-12T12:55:23.261Z,48
2018-10-12T12:58:23.697Z,48
2018-10-12T13:01:23.339Z,48
2018-10-12T13:04:23.383Z,48
2018-10-12T13:07:23.410Z,48
2018-10-12T13:10:23.441Z,48
2018-10-12T13:13:23.465Z,48
2018-10-12T13:16:23.740Z,47
2018-10-12T13:19:23.539Z,47
2018-10-12T13:22:23.563Z,46
2018-10-12T13:25:23.698Z,46
2018-10-12T13:28:23.626Z,46
2018-10-12T13:31:23.826Z,46
2018-10-12T13:34:23.730Z,46
2018-10-12T13:37:24.172Z,46
2018-10-12T13:40:24.205Z,45
2018-10-12T13:43:23.824Z,45
2018-10-12T13:46:23.906Z,45
2018-10-12T13:49:23.876Z,45
2018-10-12T13:52:23.914Z,44
2018-10-12T13:55:24.107Z,44
2018-10-12T13:58:23.985Z,44
2018-10-12T14:01:24.050Z,43
2018-10-12T14:07:24.076Z,43
2018-10-12T14:10:24.206Z,43
2018-10-12T14:13:24.228Z,43
2018-10-12T14:16:24.156Z,42
2018-10-12T14:19:24.379Z,41
2018-10-12T14:22:24.201Z,40
2018-10-12T14:25:24.258Z,38
2018-10-12T14:43:24.310Z,29
2018-10-12T14:46:24.295Z,29
2018-10-12T14:49:24.326Z,28
2018-10-12T14:52:24.360Z,27
2018-10-12T14:55:24.361Z,27
2018-10-12T14:58:24.416Z,27
2018-10-12T15:01:24.378Z,26
2018-10-12T15:04:24.401Z,26
2018-10-12T15:07:24.443Z,26
2018-10-12T15:10:24.441Z,26
2018-10-12T15:13:24.479Z,25
2018-10-12T15:16:24.470Z,25
2018-10-12T15:19:24.599Z,25
2018-10-12T15:22:24.516Z,25
2018-10-12T15:25:24.534Z,25
2018-10-12T16:04:24.695Z,22
2018-10-12T16:07:24.726Z,21
2018-10-12T16:10:24.721Z,21
2018-10-12T16:13:24.843Z,21
2018-10-12T16:16:24.728Z,21
2018-10-12T16:19:24.777Z,21
2018-10-12T16:22:25.221Z,20
2018-10-12T16:25:24.767Z,20
2018-10-12T16:28:24.877Z,20
2018-10-12T16:31:24.781Z,20
2018-10-12T16:34:24.801Z,20
2018-10-12T16:37:24.816Z,20
2018-10-12T16:40:24.814Z,19
2018-10-12T16:43:24.792Z,19
2018-10-12T16:46:24.823Z,19
2018-10-12T16:49:24.847Z,19
2018-10-12T16:52:24.839Z,19
2018-10-12T16:55:24.838Z,19
2018-10-12T16:58:25.005Z,19
2018-10-12T17:01:24.860Z,18
2018-10-12T17:04:24.988Z,18
2018-10-12T17:07:24.974Z,18
2018-10-12T17:10:25.080Z,18
2018-10-12T17:16:24.995Z,18
2018-10-12T17:19:24.932Z,18
2018-10-12T17:22:24.882Z,18
2018-10-12T17:25:24.905Z,18
2018-10-12T17:28:24.940Z,18
